Time;durP1;ratioP1;P1;durP2;ratioP2;P2;SDS_P1;SDS_P2;PMS_P1;PMS_P2;Temp;Humidity;BMP_temperature;BMP_pressure;BME280_temperature;BME280_humidity;BME280_pressure;Samples;Min_cycle;Max_cycle;Signal;HPM_P1;HPM_P2
2023/05/29 00:00:42;;;;;;;8.65;6.53;;;;;;;12.00;100.00;95850.88;5121998;27;20142;-68
2023/05/29 00:03:09;;;;;;;7.90;6.38;;;;;;;12.03;100.00;95837.44;5128941;27;20015;-67
2023/05/29 00:05:35;;;;;;;7.03;6.38;;;;;;;12.10;100.00;95840.31;5122089;27;20398;-68
2023/05/29 00:08:00;;;;;;;7.05;6.43;;;;;;;12.17;100.00;95843.19;5120240;27;20030;-68
2023/05/29 00:10:26;;;;;;;7.07;6.00;;;;;;;12.14;100.00;95841.66;5125203;27;20094;-68
2023/05/29 00:12:51;;;;;;;9.75;5.97;;;;;;;12.13;100.00;95847.94;5131903;27;20050;-68
2023/05/29 00:15:17;;;;;;;6.18;5.57;;;;;;;12.07;100.00;95842.44;5126964;27;20026;-69
2023/05/29 00:17:43;;;;;;;7.10;6.30;;;;;;;12.03;100.00;95844.53;5125049;27;20110;-68
2023/05/29 00:20:09;;;;;;;7.15;6.45;;;;;;;12.06;100.00;95846.06;5122354;27;20016;-68
2023/05/29 00:22:37;;;;;;;7.28;5.80;;;;;;;12.09;100.00;95843.94;5127706;27;20018;-69
2023/05/29 00:25:04;;;;;;;7.10;6.40;;;;;;;12.08;100.00;95852.81;5118466;27;20028;-68
2023/05/29 00:27:29;;;;;;;9.27;6.07;;;;;;;12.06;100.00;95860.06;5120508;27;20051;-68
2023/05/29 00:29:55;;;;;;;6.90;6.20;;;;;;;12.07;100.00;95860.91;5123695;27;20111;-68
2023/05/29 00:32:20;;;;;;;8.15;6.38;;;;;;;12.11;100.00;95860.44;5122867;27;20032;-68
2023/05/29 00:34:45;;;;;;;7.50;6.03;;;;;;;12.10;100.00;95865.88;5121043;27;20029;-68
2023/05/29 00:37:11;;;;;;;7.15;6.53;;;;;;;12.08;100.00;95858.09;5120772;27;20020;-68
2023/05/29 00:39:36;;;;;;;7.20;6.53;;;;;;;12.05;100.00;95861.03;5127167;27;20035;-68
2023/05/29 00:42:02;;;;;;;7.70;6.93;;;;;;;12.02;100.00;95854.22;5106368;27;20400;-68
2023/05/29 00:44:27;;;;;;;7.38;5.97;;;;;;;12.02;100.00;95854.22;5130212;27;20042;-68
2023/05/29 00:46:53;;;;;;;6.75;6.05;;;;;;;12.05;100.00;95858.41;5133247;27;20100;-69
2023/05/29 00:49:21;;;;;;;8.63;6.10;;;;;;;12.06;100.00;95853.97;5119390;27;20032;-69
2023/05/29 00:51:48;;;;;;;6.57;6.03;;;;;;;12.04;100.00;95857.56;5120110;27;20106;-68
2023/05/29 00:54:17;;;;;;;10.27;6.63;;;;;;;12.07;100.00;95858.25;5117781;27;20527;-69
2023/05/29 00:56:43;;;;;;;8.65;6.57;;;;;;;12.03;100.00;95855.91;5119968;27;20031;-68
2023/05/29 00:59:10;;;;;;;6.70;6.18;;;;;;;12.03;100.00;95855.91;5109715;27;20046;-69
2023/05/29 01:01:36;;;;;;;7.57;6.80;;;;;;;12.01;100.00;95854.41;5126120;27;20449;-69
2023/05/29 01:04:06;;;;;;;6.88;6.30;;;;;;;12.00;100.00;95856.16;5123519;27;20023;-69
2023/05/29 01:06:32;;;;;;;8.30;6.63;;;;;;;11.98;100.00;95844.13;5132549;27;20150;-69
2023/05/29 01:08:58;;;;;;;6.55;5.90;;;;;;;11.96;100.00;95844.25;5113889;28;20026;-69
2023/05/29 01:12:14;;;;;;;6.95;6.18;;;;;;;11.95;100.00;95844.41;5108440;27;20031;-68
2023/05/29 01:14:58;;;;;;;10.07;6.53;;;;;;;11.89;100.00;95849.28;5073125;28;20586;-68
2023/05/29 01:17:35;;;;;;;6.60;6.05;;;;;;;11.82;100.00;95842.09;5110511;28;20038;-69
2023/05/29 01:20:09;;;;;;;9.57;6.90;;;;;;;11.77;100.00;95846.97;5131813;27;20083;-68
2023/05/29 01:22:50;;;;;;;10.40;6.70;;;;;;;11.75;100.00;95845.31;5127004;27;20030;-68
2023/05/29 01:25:23;;;;;;;6.50;6.00;;;;;;;11.85;100.00;95845.28;5124016;27;20079;-69
2023/05/29 01:27:51;;;;;;;7.80;6.95;;;;;;;11.85;100.00;95842.63;5119611;27;20015;-69
2023/05/29 01:30:20;;;;;;;8.30;6.22;;;;;;;11.87;100.00;95845.13;5130098;27;20020;-69
2023/05/29 01:32:45;;;;;;;7.55;6.90;;;;;;;11.87;100.00;95845.13;5123135;27;20106;-68
2023/05/29 01:35:11;;;;;;;7.80;6.75;;;;;;;11.82;100.00;95842.09;5118006;27;20022;-69
2023/05/29 01:37:36;;;;;;;8.88;7.13;;;;;;;11.76;100.00;95838.25;5120672;27;20026;-68
2023/05/29 01:40:04;;;;;;;7.07;6.40;;;;;;;11.74;100.00;95834.94;5131694;27;20070;-68
2023/05/29 01:42:29;;;;;;;9.60;6.88;;;;;;;11.72;100.00;95827.16;5108222;28;20020;-68
2023/05/29 01:44:57;;;;;;;9.82;6.78;;;;;;;11.71;100.00;95825.47;5119069;27;20038;-68
2023/05/29 01:47:23;;;;;;;7.25;6.60;;;;;;;11.70;100.00;95823.81;5138109;27;20054;-68
2023/05/29 01:49:51;;;;;;;8.95;7.10;;;;;;;11.72;100.00;95821.88;5129950;27;20023;-69
2023/05/29 01:52:17;;;;;;;7.32;6.63;;;;;;;11.75;100.00;95815.47;5122787;27;20484;-69
2023/05/29 01:54:43;;;;;;;10.73;7.22;;;;;;;11.72;100.00;95816.59;5127352;27;20030;-68
2023/05/29 01:57:09;;;;;;;7.72;7.03;;;;;;;11.69;100.00;95822.16;5127557;27;20206;-68
2023/05/29 01:59:37;;;;;;;7.60;7.00;;;;;;;11.68;100.00;95819.66;5128549;27;20061;-69
2023/05/29 02:02:09;;;;;;;14.35;6.72;;;;;;;11.64;100.00;95816.50;5120244;27;20473;-69
2023/05/29 02:04:34;;;;;;;7.35;6.75;;;;;;;11.63;100.00;95814.84;5131747;27;20425;-69
2023/05/29 02:07:00;;;;;;;8.15;6.65;;;;;;;11.67;100.00;95815.38;5125404;27;20030;-69
2023/05/29 02:09:26;;;;;;;8.93;6.53;;;;;;;11.73;100.00;95818.25;5133730;27;20072;-69
2023/05/29 02:11:51;;;;;;;6.97;6.28;;;;;;;11.74;100.00;95816.47;5136749;27;20424;-69
2023/05/29 02:14:17;;;;;;;8.85;6.28;;;;;;;11.75;100.00;95826.03;5126177;27;20019;-69
2023/05/29 02:16:43;;;;;;;6.75;6.25;;;;;;;11.72;100.00;95816.59;5120481;27;20131;-69
2023/05/29 02:19:09;;;;;;;9.10;6.43;;;;;;;11.71;100.00;95824.63;5120869;27;20062;-69
2023/05/29 02:21:38;;;;;;;9.15;6.55;;;;;;;11.69;100.00;95821.31;5123852;27;20019;-69
2023/05/29 02:24:04;;;;;;;11.55;6.95;;;;;;;11.74;100.00;95824.38;5127976;27;20022;-69
2023/05/29 02:26:31;;;;;;;10.73;6.22;;;;;;;11.76;100.00;95822.41;5120683;27;20388;-68
2023/05/29 02:28:56;;;;;;;8.50;6.88;;;;;;;11.82;100.00;95810.44;5114540;28;20027;-69
2023/05/29 02:31:22;;;;;;;7.25;6.55;;;;;;;11.87;100.00;95806.38;5113796;27;20035;-68
2023/05/29 02:33:48;;;;;;;7.30;6.65;;;;;;;11.85;100.00;95812.81;5128432;27;20068;-69
2023/05/29 02:36:13;;;;;;;7.60;6.90;;;;;;;11.79;100.00;95802.81;5120554;27;20011;-69
2023/05/29 02:38:40;;;;;;;8.68;7.78;;;;;;;11.74;100.00;95801.44;5126527;27;20215;-68
2023/05/29 02:41:05;;;;;;;8.02;7.25;;;;;;;11.68;100.00;95799.41;5119732;27;20479;-69
2023/05/29 02:43:31;;;;;;;8.40;7.20;;;;;;;11.64;100.00;95802.47;5128003;27;20031;-69
2023/05/29 02:45:56;;;;;;;8.38;7.43;;;;;;;11.59;100.00;95809.03;5123439;27;20074;-69
2023/05/29 02:48:22;;;;;;;8.23;7.45;;;;;;;11.56;100.00;95809.31;5124680;27;20027;-69
2023/05/29 02:50:47;;;;;;;7.95;7.25;;;;;;;11.53;100.00;95808.75;5128450;27;20136;-68
2023/05/29 02:53:13;;;;;;;7.45;6.82;;;;;;;11.52;100.00;95815.00;5119796;28;20042;-69
2023/05/29 02:55:38;;;;;;;8.82;7.32;;;;;;;11.55;100.00;95822.63;5121638;27;20034;-69
2023/05/29 02:58:04;;;;;;;7.88;7.18;;;;;;;11.51;100.00;95816.00;5126863;28;20011;-68
2023/05/29 03:00:29;;;;;;;7.13;6.53;;;;;;;11.52;100.00;95809.75;5126818;28;20034;-69
2023/05/29 03:02:55;;;;;;;7.72;7.07;;;;;;;11.49;100.00;95804.75;5121869;27;20033;-69
2023/05/29 03:05:21;;;;;;;8.30;6.93;;;;;;;11.45;100.00;95809.47;5128897;27;20058;-69
2023/05/29 03:07:46;;;;;;;7.78;6.95;;;;;;;11.46;100.00;95811.13;5130122;28;20114;-70
2023/05/29 03:10:11;;;;;;;8.55;6.60;;;;;;;11.50;100.00;95799.34;5131564;27;20388;-69
2023/05/29 03:12:37;;;;;;;8.38;7.28;;;;;;;11.51;100.00;95802.81;5135871;27;20018;-69
2023/05/29 03:15:03;;;;;;;7.38;6.78;;;;;;;11.51;100.00;95794.91;5121656;28;20027;-69
2023/05/29 03:17:29;;;;;;;8.15;7.45;;;;;;;11.51;100.00;95801.03;5131652;27;20020;-69
2023/05/29 03:19:54;;;;;;;7.32;6.80;;;;;;;11.51;100.00;95802.81;5128642;28;20034;-69
2023/05/29 03:22:20;;;;;;;8.65;7.22;;;;;;;11.49;100.00;95799.50;5101917;28;20029;-69
2023/05/29 03:24:45;;;;;;;8.35;7.55;;;;;;;11.46;100.00;95803.22;5120984;28;20491;-69
2023/05/29 03:27:11;;;;;;;7.93;7.30;;;;;;;11.50;100.00;95799.34;5121108;28;20015;-68
2023/05/29 03:29:36;;;;;;;10.38;8.45;;;;;;;11.51;100.00;95805.44;5122867;28;20063;-69
2023/05/29 03:32:02;;;;;;;7.95;7.25;;;;;;;11.49;100.00;95808.22;5120428;28;20023;-68
2023/05/29 03:34:27;;;;;;;9.35;7.75;;;;;;;11.46;100.00;95811.13;5128185;28;20501;-68
2023/05/29 03:36:53;;;;;;;8.00;7.13;;;;;;;11.42;100.00;95807.13;5131281;28;20050;-69
2023/05/29 03:39:19;;;;;;;7.90;7.15;;;;;;;11.42;100.00;95809.78;5121178;27;20059;-69
2023/05/29 03:41:44;;;;;;;8.30;7.60;;;;;;;11.43;100.00;95809.66;5131750;27;20449;-68
2023/05/29 03:44:10;;;;;;;9.52;8.07;;;;;;;11.44;100.00;95816.56;5138379;27;20041;-69
2023/05/29 03:46:35;;;;;;;8.55;7.68;;;;;;;11.51;100.00;95823.91;5141703;27;20418;-69
2023/05/29 03:49:01;;;;;;;8.55;7.80;;;;;;;11.54;100.00;95813.91;5135723;27;20022;-68
2023/05/29 03:51:26;;;;;;;8.48;7.57;;;;;;;11.55;100.00;95812.09;5129074;27;20023;-69
2023/05/29 03:53:51;;;;;;;10.63;7.85;;;;;;;11.54;100.00;95815.69;5119280;27;20023;-69
2023/05/29 03:56:17;;;;;;;7.97;7.00;;;;;;;11.52;100.00;95812.38;5119124;27;20020;-69
2023/05/29 03:58:42;;;;;;;8.52;7.60;;;;;;;11.52;100.00;95809.75;5127303;27;20033;-69
2023/05/29 04:01:09;;;;;;;11.25;8.48;;;;;;;11.51;100.00;95818.63;5120733;27;20022;-68
2023/05/29 04:03:34;;;;;;;8.63;7.82;;;;;;;11.52;100.00;95810.59;5118205;28;20062;-69
2023/05/29 04:06:00;;;;;;;7.88;7.28;;;;;;;11.53;100.00;95812.25;5121531;27;20011;-69
2023/05/29 04:08:26;;;;;;;8.63;7.63;;;;;;;11.56;100.00;95816.38;5126770;27;20032;-68
2023/05/29 04:10:53;;;;;;;10.52;8.23;;;;;;;11.54;100.00;95811.28;5124432;27;20042;-69
2023/05/29 04:13:20;;;;;;;8.05;7.35;;;;;;;11.51;100.00;95824.75;5139703;27;20034;-69
2023/05/29 04:15:45;;;;;;;7.75;6.82;;;;;;;11.50;100.00;95828.34;5133898;27;20253;-69
2023/05/29 04:18:10;;;;;;;8.13;7.30;;;;;;;11.46;100.00;95826.97;5127836;27;20038;-68
2023/05/29 04:20:36;;;;;;;9.35;8.25;;;;;;;11.44;100.00;95824.50;5124767;27;20142;-68
2023/05/29 04:23:01;;;;;;;10.13;7.75;;;;;;;11.45;100.00;95834.06;5135712;27;20022;-69
2023/05/29 04:25:27;;;;;;;8.15;7.40;;;;;;;11.49;100.00;95837.22;5118760;27;20423;-68
2023/05/29 04:27:52;;;;;;;9.55;8.15;;;;;;;11.51;100.00;95839.72;5116244;28;20062;-68
2023/05/29 04:30:18;;;;;;;8.88;8.18;;;;;;;11.54;100.00;95839.44;5115729;28;20080;-69
2023/05/29 04:32:43;;;;;;;9.60;8.02;;;;;;;11.57;100.00;95841.78;5117992;27;20027;-69
2023/05/29 04:35:10;;;;;;;8.50;7.80;;;;;;;11.58;100.00;95841.63;5118209;27;20023;-68
2023/05/29 04:37:39;;;;;;;8.70;7.53;;;;;;;11.63;100.00;95843.00;5133699;27;20062;-68
2023/05/29 04:40:09;;;;;;;10.10;8.15;;;;;;;11.62;100.00;95850.09;5119020;27;20432;-68
2023/05/29 04:42:39;;;;;;;9.30;8.40;;;;;;;11.60;100.00;95850.22;5121544;27;20077;-68
2023/05/29 04:45:05;;;;;;;11.15;8.15;;;;;;;11.60;100.00;95852.03;5122478;27;20038;-69
2023/05/29 04:47:32;;;;;;;9.90;8.02;;;;;;;11.63;100.00;95854.41;5121333;27;20054;-69
2023/05/29 04:49:59;;;;;;;9.27;8.38;;;;;;;11.69;100.00;95856.44;5127966;27;20023;-69
2023/05/29 04:52:25;;;;;;;9.02;8.00;;;;;;;11.68;100.00;95851.31;5119578;27;20032;-68
2023/05/29 04:54:50;;;;;;;19.45;8.45;;;;;;;11.69;100.00;95853.81;5131355;27;20568;-68
2023/05/29 04:57:16;;;;;;;9.57;7.53;;;;;;;11.73;100.00;95857.81;5136937;27;20464;-69
2023/05/29 04:59:41;;;;;;;10.35;8.05;;;;;;;11.80;100.00;95860.72;5128489;27;20012;-69
2023/05/29 05:02:07;;;;;;;9.75;7.68;;;;;;;11.85;100.00;95857.66;5116796;28;20016;-69
2023/05/29 05:04:32;;;;;;;9.60;8.75;;;;;;;11.89;100.00;95859.81;5121806;27;20019;-68
2023/05/29 05:06:58;;;;;;;8.43;7.63;;;;;;;11.96;100.00;95868.00;5132123;27;20468;-68
2023/05/29 05:09:23;;;;;;;10.68;8.00;;;;;;;12.02;100.00;95859.50;5130745;27;20071;-68
2023/05/29 05:11:49;;;;;;;8.30;7.57;;;;;;;12.13;100.00;95863.75;5141583;27;20027;-67
2023/05/29 05:14:14;;;;;;;11.07;9.40;;;;;;;12.22;100.00;95869.97;5139737;27;20023;-68
2023/05/29 05:16:40;;;;;;;9.18;8.35;;;;;;;12.31;100.00;95862.97;5116712;28;20028;-68
2023/05/29 05:19:05;;;;;;;9.70;8.70;;;;;;;12.41;100.00;95863.75;5121981;27;20479;-68
2023/05/29 05:21:32;;;;;;;17.55;9.05;;;;;;;12.48;100.00;95852.59;5126338;27;20028;-69
2023/05/29 05:23:58;;;;;;;11.32;10.00;;;;;;;12.54;100.00;95849.34;5126624;27;20031;-69
2023/05/29 05:26:24;;;;;;;11.00;9.48;;;;;;;12.61;100.00;95848.59;5129918;27;20023;-69
2023/05/29 05:28:49;;;;;;;9.93;8.98;;;;;;;12.67;100.00;95849.81;5127121;27;20027;-68
2023/05/29 05:31:15;;;;;;;11.20;9.57;;;;;;;12.73;100.00;95854.47;5124637;27;20061;-69
2023/05/29 05:33:40;;;;;;;10.75;9.68;;;;;;;12.80;100.00;95849.41;5125709;27;20026;-69
2023/05/29 05:36:06;;;;;;;10.45;9.52;;;;;;;12.87;100.00;95847.81;5131625;27;20476;-68
2023/05/29 05:38:32;;;;;;;9.95;8.95;;;;;;;12.94;100.00;95852.53;5123553;27;20102;-68
2023/05/29 05:40:57;;;;;;;8.90;8.07;;;;;;;13.03;100.00;95854.22;5135188;27;20047;-69
2023/05/29 05:43:23;;;;;;;8.93;8.07;;;;;;;13.17;100.00;95858.13;5135178;27;20393;-68
2023/05/29 05:45:48;;;;;;;8.55;7.65;;;;;;;13.22;100.00;95866.41;5127361;27;20042;-68
2023/05/29 05:48:13;;;;;;;8.57;7.60;;;;;;;13.29;100.00;95862.19;5128676;27;20055;-69
2023/05/29 05:50:39;;;;;;;8.27;7.43;;;;;;;13.44;100.00;95861.66;5123086;27;20022;-68
2023/05/29 05:53:04;;;;;;;8.23;6.97;;;;;;;13.50;100.00;95858.41;5099213;28;20034;-68
2023/05/29 05:55:30;;;;;;;8.00;7.30;;;;;;;13.54;100.00;95849.16;5117595;27;20081;-68
2023/05/29 05:57:56;;;;;;;8.57;7.88;;;;;;;13.59;100.00;95854.81;5128080;27;20048;-68
2023/05/29 06:00:23;;;;;;;11.57;7.00;;;;;;;13.65;100.00;95850.72;5116852;27;20370;-68
2023/05/29 06:02:48;;;;;;;14.80;7.95;;;;;;;13.78;100.00;95854.72;5126166;27;20320;-68
2023/05/29 06:05:14;;;;;;;8.70;7.80;;;;;;;13.88;100.00;95856.25;5116759;27;20392;-69
2023/05/29 06:07:40;;;;;;;7.40;6.57;;;;;;;13.97;100.00;95843.88;5124016;27;20484;-69
2023/05/29 06:10:05;;;;;;;8.05;7.25;;;;;;;14.08;100.00;95855.19;5117745;27;20050;-69
2023/05/29 06:12:31;;;;;;;8.20;7.50;;;;;;;14.20;100.00;95853.09;5124595;27;20510;-69
2023/05/29 06:14:56;;;;;;;11.75;8.95;;;;;;;14.43;100.00;95840.06;5122697;27;20387;-69
2023/05/29 06:17:23;;;;;;;10.77;8.38;;;;;;;14.58;100.00;95848.19;5117449;27;20064;-70
2023/05/29 06:19:49;;;;;;;12.60;9.10;;;;;;;14.72;100.00;95852.06;5128130;27;20135;-70
2023/05/29 06:22:15;;;;;;;11.27;9.35;;;;;;;14.82;100.00;95860.69;5117013;27;20611;-70
2023/05/29 06:24:40;;;;;;;13.98;8.63;;;;;;;14.92;100.00;95852.56;5129175;27;20051;-70
2023/05/29 06:27:06;;;;;;;13.70;8.80;;;;;;;15.02;100.00;95849.75;5120123;27;20057;-70
2023/05/29 06:29:32;;;;;;;8.95;8.07;;;;;;;15.03;100.00;95851.41;5129205;27;20038;-70
2023/05/29 06:31:57;;;;;;;8.55;7.13;;;;;;;15.18;100.00;95848.91;5126665;27;20055;-70
2023/05/29 06:34:23;;;;;;;10.77;7.28;;;;;;;15.42;100.00;95844.56;5129779;27;20031;-70
2023/05/29 06:36:48;;;;;;;8.32;7.38;;;;;;;15.68;100.00;95848.84;5122561;27;20027;-69
2023/05/29 06:39:15;;;;;;;11.18;7.13;;;;;;;15.88;100.00;95836.00;5129542;27;20023;-71
2023/05/29 06:41:40;;;;;;;10.43;7.70;;;;;;;16.07;100.00;95824.16;5116049;27;20019;-70
2023/05/29 06:44:06;;;;;;;9.10;8.20;;;;;;;16.42;100.00;95823.81;5119374;27;20026;-70
2023/05/29 06:46:31;;;;;;;9.27;7.85;;;;;;;16.75;100.00;95827.09;5128302;27;20069;-70
2023/05/29 06:48:56;;;;;;;10.10;7.75;;;;;;;16.99;100.00;95809.31;5122158;28;20031;-70
2023/05/29 06:51:22;;;;;;;9.98;8.93;;;;;;;17.33;100.00;95804.53;5121739;27;20502;-70
2023/05/29 06:53:47;;;;;;;8.05;7.15;;;;;;;17.72;100.00;95792.78;5124444;28;20058;-70
2023/05/29 06:56:13;;;;;;;7.70;7.03;;;;;;;17.82;100.00;95784.53;5120376;28;20023;-70
2023/05/29 06:58:39;;;;;;;7.60;7.00;;;;;;;17.65;100.00;95775.91;5098149;28;20096;-70
2023/05/29 07:01:05;;;;;;;9.95;6.55;;;;;;;17.86;100.00;95779.66;5116751;28;20023;-70
2023/05/29 07:03:30;;;;;;;7.55;6.47;;;;;;;17.85;100.00;95780.69;5108384;28;20023;-70
2023/05/29 07:05:56;;;;;;;6.20;5.55;;;;;;;18.32;100.00;95773.25;5127390;27;20080;-70
2023/05/29 07:08:22;;;;;;;6.68;5.32;;;;;;;18.68;100.00;95783.03;5134557;28;20384;-70
2023/05/29 07:10:48;;;;;;;7.70;5.60;;;;;;;19.12;100.00;95762.53;5133723;27;20031;-70
2023/05/29 07:13:16;;;;;;;5.97;5.43;;;;;;;19.42;100.00;95756.97;5133821;27;20107;-70
2023/05/29 07:15:41;;;;;;;6.28;5.72;;;;;;;19.53;100.00;95754.75;5118323;27;20054;-70
2023/05/29 07:18:07;;;;;;;10.45;6.90;;;;;;;19.64;100.00;95753.38;5118970;28;20503;-70
2023/05/29 07:20:32;;;;;;;7.50;6.10;;;;;;;20.15;100.00;95749.50;5124093;27;20537;-71
2023/05/29 07:22:57;;;;;;;8.68;5.68;;;;;;;20.35;100.00;95735.38;5120427;27;20083;-71
2023/05/29 07:25:23;;;;;;;6.22;5.65;;;;;;;20.47;100.00;95731.09;5131333;27;20132;-71
2023/05/29 07:27:48;;;;;;;6.60;6.00;;;;;;;20.43;100.00;95724.47;5116869;28;20061;-71
2023/05/29 07:30:14;;;;;;;6.65;5.97;;;;;;;20.25;100.00;95731.25;5123558;27;20028;-72
2023/05/29 07:32:39;;;;;;;6.28;5.68;;;;;;;20.56;100.00;95740.56;5118984;27;20020;-71
2023/05/29 07:35:06;;;;;;;8.85;6.70;;;;;;;20.50;100.00;95735.19;5130040;27;20031;-71
2023/05/29 07:37:31;;;;;;;7.00;6.30;;;;;;;20.72;100.00;95731.31;5126554;27;20486;-71
2023/05/29 07:39:57;;;;;;;5.22;4.72;;;;;;;20.58;100.00;95711.75;5130537;27;20097;-71
2023/05/29 07:42:22;;;;;;;5.93;5.32;;;;;;;21.13;100.00;95684.00;5113619;27;20422;-72
2023/05/29 07:44:48;;;;;;;11.15;5.13;;;;;;;20.61;100.00;95689.13;5119096;27;20076;-72
2023/05/29 07:47:14;;;;;;;6.07;5.47;;;;;;;20.29;100.00;95695.06;5123834;27;20063;-71
2023/05/29 07:49:40;;;;;;;7.65;5.85;;;;;;;20.58;100.00;95686.88;5124911;27;20074;-72
2023/05/29 07:52:05;;;;;;;7.03;5.88;;;;;;;20.72;100.00;95685.03;5131567;27;20023;-73
2023/05/29 07:54:32;;;;;;;5.93;5.00;;;;;;;20.75;100.00;95685.41;5121620;27;20098;-72
2023/05/29 07:56:59;;;;;;;5.72;5.22;;;;;;;20.92;100.00;95694.94;5131414;27;20472;-72
2023/05/29 07:59:25;;;;;;;5.70;5.15;;;;;;;21.35;100.00;95681.06;5124567;27;20034;-72
2023/05/29 08:01:50;;;;;;;5.75;5.22;;;;;;;21.63;100.00;95687.97;5126418;27;20400;-72
2023/05/29 08:04:16;;;;;;;9.88;5.15;;;;;;;21.49;100.00;95672.97;5121636;27;20264;-72
2023/05/29 08:06:44;;;;;;;5.05;4.57;;;;;;;21.85;100.00;95668.94;5133012;27;20019;-71
2023/05/29 08:09:10;;;;;;;5.57;5.05;;;;;;;21.34;100.00;95671.38;5126204;27;20028;-73
2023/05/29 08:11:36;;;;;;;6.00;5.40;;;;;;;21.58;100.00;95674.38;5130121;27;20522;-72
2023/05/29 08:14:02;;;;;;;5.15;4.65;;;;;;;21.57;100.00;95676.22;5134800;27;20027;-72
2023/05/29 08:16:27;;;;;;;6.22;5.03;;;;;;;21.91;100.00;95667.28;5118092;27;20704;-72
2023/05/29 08:18:53;;;;;;;8.15;4.85;;;;;;;21.95;100.00;95660.44;5122043;27;20845;-73
2023/05/29 08:21:19;;;;;;;6.20;5.63;;;;;;;21.77;100.00;95679.88;5124839;27;20053;-72
2023/05/29 08:23:45;;;;;;;8.15;5.35;;;;;;;22.12;100.00;95666.94;5129911;27;20062;-73
2023/05/29 08:26:10;;;;;;;5.50;5.00;;;;;;;21.11;100.00;95679.88;5125535;27;20551;-73
2023/05/29 08:28:36;;;;;;;5.50;5.10;;;;;;;21.35;100.00;95689.09;5122248;27;20050;-74
2023/05/29 08:31:01;;;;;;;5.82;5.25;;;;;;;22.11;100.00;95677.88;5132093;27;20122;-74
2023/05/29 08:33:27;;;;;;;6.65;5.68;;;;;;;22.49;100.00;95666.31;5123575;27;20104;-73
2023/05/29 08:35:52;;;;;;;7.10;5.10;;;;;;;21.80;100.00;95658.03;5118183;27;20075;-73
2023/05/29 08:38:17;;;;;;;5.80;5.30;;;;;;;21.79;100.00;95669.81;5124845;27;20080;-73
2023/05/29 08:40:43;;;;;;;6.30;5.80;;;;;;;21.86;100.00;95674.06;5130793;27;20158;-72
2023/05/29 08:43:14;;;;;;;5.38;4.85;;;;;;;22.25;100.00;95671.41;5117270;27;20031;-72
2023/05/29 08:45:43;;;;;;;5.68;5.18;;;;;;;22.21;100.00;95675.53;5119262;27;20043;-72
2023/05/29 08:48:10;;;;;;;7.78;5.40;;;;;;;22.60;100.00;95672.81;5118318;27;20028;-74
2023/05/29 08:50:42;;;;;;;5.45;5.05;;;;;;;23.18;100.00;95668.16;5122714;27;20032;-74
2023/05/29 08:53:09;;;;;;;5.30;4.88;;;;;;;22.66;100.00;95665.75;5128363;27;20465;-73
2023/05/29 08:55:35;;;;;;;6.43;5.43;;;;;;;23.04;100.00;95659.41;5121515;27;20121;-71
2023/05/29 08:58:01;;;;;;;6.20;5.70;;;;;;;22.92;100.00;95648.59;5118668;27;20070;-70
2023/05/29 09:00:28;;;;;;;5.72;5.20;;;;;;;22.43;100.00;95659.06;5116698;27;20028;-73
2023/05/29 09:02:55;;;;;;;5.93;5.35;;;;;;;22.72;100.00;95649.59;5131407;27;20024;-70
2023/05/29 09:05:21;;;;;;;6.28;5.30;;;;;;;22.82;100.00;95646.41;5127399;27;20478;-70
2023/05/29 09:07:49;;;;;;;5.22;4.82;;;;;;;22.95;100.00;95642.78;5131365;27;20034;-75
2023/05/29 09:10:15;;;;;;;7.43;4.70;;;;;;;22.59;100.00;95650.53;5129923;27;20038;-71
2023/05/29 09:12:40;;;;;;;5.20;4.80;;;;;;;22.88;100.00;95653.59;5129480;27;20034;-71
2023/05/29 09:15:20;;;;;;;9.25;5.30;;;;;;;23.31;100.00;95653.81;5117444;27;20494;-73
2023/05/29 09:17:52;;;;;;;5.63;4.85;;;;;;;24.49;100.00;95643.78;5138766;27;20044;-73
2023/05/29 09:20:23;;;;;;;5.53;5.00;;;;;;;24.89;100.00;95627.84;5131011;27;20034;-72
2023/05/29 09:22:55;;;;;;;5.43;4.93;;;;;;;24.60;100.00;95624.16;5128821;27;20031;-73
2023/05/29 09:25:23;;;;;;;6.30;4.70;;;;;;;24.80;100.00;95625.75;5136423;27;20447;-75
2023/05/29 09:28:08;;;;;;;6.53;4.85;;;;;;;25.41;100.00;95615.47;5128816;27;20032;-72
2023/05/29 09:30:44;;;;;;;5.03;4.60;;;;;;;25.17;100.00;95614.69;5122020;27;20026;-72
2023/05/29 09:33:12;;;;;;;9.40;5.35;;;;;;;25.51;100.00;95605.97;5124021;27;20157;-74
2023/05/29 09:35:40;;;;;;;6.05;4.93;;;;;;;25.37;100.00;95605.41;5127915;27;20059;-74
2023/05/29 09:38:07;;;;;;;5.68;5.03;;;;;;;25.34;100.00;95600.50;5122991;27;20023;-73
2023/05/29 09:40:35;;;;;;;5.75;5.10;;;;;;;25.46;100.00;95602.09;5123075;27;20031;-73
2023/05/29 09:43:11;;;;;;;7.40;6.45;;;;;;;25.64;100.00;95594.94;5126383;27;20026;-74
2023/05/29 09:45:41;;;;;;;5.78;5.28;;;;;;;25.82;100.00;95595.81;5122265;27;20051;-75
2023/05/29 09:48:11;;;;;;;5.13;4.65;;;;;;;25.81;100.00;95589.56;5115055;28;20647;-75
2023/05/29 09:50:37;;;;;;;5.45;4.95;;;;;;;25.18;100.00;95608.25;5125731;27;20502;-74
2023/05/29 09:53:03;;;;;;;5.10;4.70;;;;;;;25.45;100.00;95605.84;5114832;27;20023;-71
2023/05/29 09:55:31;;;;;;;5.22;4.63;;;;;;;25.12;100.00;95599.25;5132694;27;20015;-72
2023/05/29 09:57:58;;;;;;;4.95;4.55;;;;;;;25.37;100.00;95606.22;5132239;27;20027;-73
2023/05/29 10:00:24;;;;;;;6.70;5.15;;;;;;;25.08;100.00;95603.47;5120399;27;20040;-73
2023/05/29 10:02:49;;;;;;;4.85;4.45;;;;;;;25.04;100.00;95610.38;5115546;27;20016;-73
2023/05/29 10:05:18;;;;;;;6.63;4.85;;;;;;;25.52;100.00;95596.84;5117235;27;20019;-72
2023/05/29 10:07:52;;;;;;;4.75;4.32;;;;;;;25.32;100.00;95584.59;5129624;27;20428;-70
2023/05/29 10:10:18;;;;;;;5.37;4.47;;;;;;;25.23;100.00;95594.91;5130650;27;20066;-72
2023/05/29 10:12:50;;;;;;;4.72;4.40;;;;;;;25.25;100.00;95595.50;5127130;27;20296;-73
2023/05/29 10:15:18;;;;;;;5.07;4.68;;;;;;;25.44;100.00;95590.75;5123492;27;20030;-72
2023/05/29 10:17:56;;;;;;;5.45;4.95;;;;;;;26.21;100.00;95587.06;5118944;27;20068;-74
2023/05/29 10:20:23;;;;;;;5.57;5.07;;;;;;;25.70;100.00;95591.25;5119801;27;20032;-75
2023/05/29 10:22:51;;;;;;;5.28;4.78;;;;;;;26.53;100.00;95586.50;5121346;27;20016;-74
2023/05/29 10:25:23;;;;;;;5.88;5.38;;;;;;;26.15;100.00;95578.03;5120725;27;20031;-70
2023/05/29 10:27:49;;;;;;;5.78;4.43;;;;;;;26.80;100.00;95575.03;5129935;27;20075;-71
2023/05/29 10:30:40;;;;;;;4.97;4.57;;;;;;;26.63;100.00;95572.34;5114576;27;20035;-69
2023/05/29 10:33:32;;;;;;;5.60;4.72;;;;;;;26.29;100.00;95574.00;5120848;27;20023;-70
2023/05/29 10:36:15;;;;;;;5.28;4.68;;;;;;;25.85;100.00;95571.84;5120413;27;20039;-70
2023/05/29 10:38:45;;;;;;;5.60;5.10;;;;;;;25.70;100.00;95580.47;5119480;27;20037;-72
2023/05/29 10:41:29;;;;;;;6.05;5.53;;;;;;;26.05;100.00;95575.16;5120728;27;20050;-74
2023/05/29 10:43:56;;;;;;;7.20;5.13;;;;;;;26.43;100.00;95568.28;5122528;27;20187;-71
2023/05/29 10:46:41;;;;;;;19.27;16.85;;;;;;;26.45;100.00;95563.47;5125168;27;20054;-70
2023/05/29 10:49:17;;;;;;;14.18;12.25;;;;;;;26.48;100.00;95557.56;5126662;27;20042;-68
2023/05/29 10:51:43;;;;;;;6.38;5.45;;;;;;;26.61;100.00;95556.41;5125057;27;20028;-71
2023/05/29 10:54:09;;;;;;;7.32;6.15;;;;;;;26.19;100.00;95552.22;5116805;28;20024;-63
2023/05/29 10:56:34;;;;;;;5.93;5.32;;;;;;;26.37;100.00;95553.06;5126555;28;20023;-65
2023/05/29 10:59:03;;;;;;;7.30;6.40;;;;;;;26.69;100.00;95552.47;5119079;28;20045;-69
2023/05/29 11:01:30;;;;;;;195.40;176.63;;;;;;;26.98;100.00;95538.84;5121448;28;20070;-70
2023/05/29 11:04:17;;;;;;;205.27;185.10;;;;;;;26.68;100.00;95543.53;5105077;28;20248;-70
2023/05/29 11:06:44;;;;;;;73.35;66.03;;;;;;;26.22;100.00;95557.16;5117809;27;20222;-70
2023/05/29 11:09:31;;;;;;;12.95;11.25;;;;;;;26.31;100.00;95560.28;5105692;28;20059;-71
2023/05/29 11:12:38;;;;;;;6.45;5.80;;;;;;;26.77;100.00;95546.63;5124500;27;20123;-70
2023/05/29 11:15:13;;;;;;;5.70;4.90;;;;;;;26.76;100.00;95542.28;5124024;27;20044;-72
2023/05/29 11:17:38;;;;;;;5.80;4.72;;;;;;;26.98;100.00;95544.25;5125304;27;20099;-71
2023/05/29 11:20:09;;;;;;;7.10;4.87;;;;;;;27.23;100.00;95527.53;5125218;28;20243;-71
2023/05/29 11:22:40;;;;;;;5.20;4.80;;;;;;;27.58;100.00;95522.81;5116762;28;20278;-68
2023/05/29 11:25:07;;;;;;;6.15;4.70;;;;;;;27.56;100.00;95514.94;5116242;28;20391;-71